Latest Weather Observations for Fort Denison

IDN60901

Issued at 5:21 pm EST Sunday 24 May 2015 (issued every 10 minutes, with the page automatically refreshed every 10 minutes)

About weather observations | Map of Sydney area stations | Latest observations for Sydney area | Other Formats
Station Details ID: 066022 Name: FORT DENISON Lat: -33.86 Lon: 151.23 Height: 5.0 m
Data from the previous 72 hours. | See also: Recent months for locations in New South Wales
Date/Time
EST
Tmp

°C
App
Tmp
°C
Dew
Point
°C
Rel
Hum
%
Delta-T

°C
Wind Press
QNH
hPa
Press
MSL
hPa
Rain
since
9 am
mm
Dir
 
Spd
km/h
Gust
km/h
Spd
kts
Gust
kts
24/05:00pm - - - - - SE 7 11 4 6 - - -
24/04:30pm - - - - - SE 7 11 4 6 - - -
24/04:00pm - - - - - ESE 9 13 5 7 - - -
24/03:30pm - - - - - ESE 11 17 6 9 - - -
24/03:00pm - - - - - ESE 6 9 3 5 - - -
24/02:30pm - - - - - ENE 6 6 3 3 - - -
24/02:00pm - - - - - ESE 4 6 2 3 - - -
24/01:30pm - - - - - N 2 4 1 2 - - -
24/01:00pm - - - - - WNW 9 13 5 7 - - -
24/12:30pm - - - - - WNW 11 15 6 8 - - -
24/12:00pm - - - - - WNW 15 19 8 10 - - -
24/11:30am - - - - - WNW 17 19 9 10 - - -
24/11:00am - - - - - WNW 15 19 8 10 - - -
24/10:30am - - - - - W 17 22 9 12 - - -
24/10:00am - - - - - WSW 15 20 8 11 - - -
24/09:30am - - - - - WSW 15 20 8 11 - - -
24/09:00am - - - - - W 19 24 10 13 - - -
24/08:30am - - - - - W 28 35 15 19 - - -
24/08:00am - - - - - W 28 33 15 18 - - -
24/07:30am - - - - - W 26 30 14 16 - - -
24/07:00am - - - - - W 30 35 16 19 - - -
24/06:30am - - - - - W 26 32 14 17 - - -
24/06:00am - - - - - W 26 32 14 17 - - -
24/05:30am - - - - - W 26 32 14 17 - - -
24/05:00am - - - - - W 26 32 14 17 - - -
24/04:30am - - - - - W 28 32 15 17 - - -
24/04:00am - - - - - W 22 28 12 15 - - -
24/03:30am - - - - - WNW 20 26 11 14 - - -
24/03:00am - - - - - WNW 24 28 13 15 - - -
24/02:30am - - - - - WNW 20 24 11 13 - - -
24/02:00am - - - - - WNW 20 24 11 13 - - -
24/01:30am - - - - - WNW 19 22 10 12 - - -
24/01:00am - - - - - W 19 22 10 12 - - -
24/12:30am - - - - - W 20 24 11 13 - - -
24/12:00am - - - - - W 19 22 10 12 - - -
 
Date/Time
EST
Tmp

°C
App
Tmp
°C
Dew
Point
°C
Rel
Hum
%
Delta-T

°C
Wind Press
QNH
hPa
Press
MSL
hPa
Rain
since
9 am
mm
Dir
 
Spd
km/h
Gust
km/h
Spd
kts
Gust
kts
23/11:30pm - - - - - WNW 17 20 9 11 - - -
23/11:00pm - - - - - W 19 24 10 13 - - -
23/10:30pm - - - - - WNW 17 22 9 12 - - -
23/10:00pm - - - - - W 13 22 7 12 - - -
23/09:30pm - - - - - SSW 13 19 7 10 - - -
23/09:00pm - - - - - SW 11 13 6 7 - - -
23/08:30pm - - - - - SSE 9 13 5 7 - - -
23/08:00pm - - - - - SSE 11 15 6 8 - - -
23/07:30pm - - - - - S 11 15 6 8 - - -
23/07:00pm - - - - - S 11 15 6 8 - - -
23/06:30pm - - - - - S 13 19 7 10 - - -
23/06:00pm - - - - - S 11 15 6 8 - - -
23/05:30pm - - - - - S 13 19 7 10 - - -
23/05:00pm - - - - - S 15 24 8 13 - - -
23/04:30pm - - - - - SSW 19 30 10 16 - - -
23/04:00pm - - - - - SSW 17 26 9 14 - - -
23/03:30pm - - - - - SSW 19 30 10 16 - - -
23/03:00pm - - - - - S 22 35 12 19 - - -
23/02:30pm - - - - - S 19 33 10 18 - - -
23/02:00pm - - - - - S 20 41 11 22 - - -
23/01:30pm - - - - - SSW 19 37 10 20 - - -
23/01:00pm - - - - - SSW 20 32 11 17 - - -
23/12:30pm - - - - - S 26 39 14 21 - - -
23/12:00pm - - - - - SSW 20 35 11 19 - - -
23/11:30am - - - - - SSW 24 39 13 21 - - -
23/11:00am - - - - - SW 11 19 6 10 - - -
23/10:30am - - - - - WSW 17 24 9 13 - - -
23/10:00am - - - - - W 19 24 10 13 - - -
23/09:30am - - - - - W 22 28 12 15 - - -
23/09:00am - - - - - W 26 35 14 19 - - -
23/08:30am - - - - - W 26 35 14 19 - - -
23/08:00am - - - - - W 24 35 13 19 - - -
23/07:30am - - - - - W 20 26 11 14 - - -
23/07:00am - - - - - W 24 30 13 16 - - -
23/06:30am - - - - - W 24 28 13 15 - - -
23/06:00am - - - - - W 26 32 14 17 - - -
23/05:30am - - - - - W 22 30 12 16 - - -
23/05:00am - - - - - W 20 26 11 14 - - -
23/04:30am - - - - - W 22 30 12 16 - - -
23/04:00am - - - - - W 20 26 11 14 - - -
23/03:30am - - - - - W 20 28 11 15 - - -
23/03:00am - - - - - WSW 19 24 10 13 - - -
23/02:30am - - - - - WSW 19 28 10 15 - - -
23/02:00am - - - - - W 20 24 11 13 - - -
23/01:30am - - - - - W 22 35 12 19 - - -
23/01:00am - - - - - WSW 19 26 10 14 - - -
23/12:30am - - - - - WSW 19 32 10 17 - - -
23/12:00am - - - - - W 20 26 11 14 - - -
 
Date/Time
EST
Tmp

°C
App
Tmp
°C
Dew
Point
°C
Rel
Hum
%
Delta-T

°C
Wind Press
QNH
hPa
Press
MSL
hPa
Rain
since
9 am
mm
Dir
 
Spd
km/h
Gust
km/h
Spd
kts
Gust
kts
22/11:30pm - - - - - W 22 28 12 15 - - -
22/11:00pm - - - - - W 24 33 13 18 - - -
22/10:30pm - - - - - W 20 28 11 15 - - -
22/10:00pm - - - - - SSW 17 26 9 14 - - -
22/09:30pm - - - - - W 22 32 12 17 - - -
22/09:00pm - - - - - W 26 32 14 17 - - -
22/08:30pm - - - - - SW 9 22 5 12 - - -
22/08:00pm - - - - - SW 17 28 9 15 - - -
22/07:30pm - - - - - SSW 24 39 13 21 - - -
22/07:00pm - - - - - SSW 26 46 14 25 - - -
22/06:53pm - - - - - S 24 46 13 25 - - -
22/06:30pm - - - - - S 22 37 12 20 - - -
22/06:00pm - - - - - SW 24 41 13 22 - - -
22/05:30pm - - - - - SSW 22 32 12 17 - - -
22/05:08pm - - - - - S 28 48 15 26 - - -
22/05:00pm - - - - - S 22 37 12 20 - - -
22/04:30pm - - - - - S 28 48 15 26 - - -
22/04:00pm - - - - - S 28 46 15 25 - - -
22/03:30pm - - - - - S 33 57 18 31 - - -
22/03:00pm - - - - - S 30 52 16 28 - - -
22/02:30pm - - - - - S 35 56 19 30 - - -
22/02:00pm - - - - - S 33 63 18 34 - - -
22/01:30pm - - - - - S 37 67 20 36 - - -
22/01:00pm - - - - - S 39 59 21 32 - - -
22/12:30pm - - - - - S 35 61 19 33 - - -
22/12:00pm - - - - - S 39 65 21 35 - - -
22/11:48am - - - - - S 32 72 17 39 - - -
22/11:30am - - - - - S 32 54 17 29 - - -
22/11:00am - - - - - SSE 30 69 16 37 - - -
22/10:59am - - - - - SSE 28 69 15 37 - - -
22/10:40am - - - - - S 28 46 15 25 - - -
22/10:30am - - - - - S 24 43 13 23 - - -
22/10:00am - - - - - S 19 39 10 21 - - -
22/09:30am - - - - - SSE 24 39 13 21 - - -
22/09:00am - - - - - S 32 52 17 28 - - -
22/08:56am - - - - - SSE 30 52 16 28 - - -
22/08:52am - - - - - SSE 26 46 14 25 - - -
22/08:30am - - - - - SW 17 28 9 15 - - -
22/08:00am - - - - - W 22 30 12 16 - - -
22/07:30am - - - - - WSW 19 30 10 16 - - -
22/07:00am - - - - - WSW 19 32 10 17 - - -
22/06:30am - - - - - WSW 20 32 11 17 - - -
22/06:00am - - - - - W 20 26 11 14 - - -
22/05:30am - - - - - W 20 26 11 14 - - -
22/05:00am - - - - - W 22 32 12 17 - - -
22/04:30am - - - - - WSW 22 32 12 17 - - -
22/04:00am - - - - - WSW 20 28 11 15 - - -
22/03:30am - - - - - W 22 30 12 16 - - -
22/03:00am - - - - - W 22 30 12 16 - - -
22/02:30am - - - - - W 22 28 12 15 - - -
22/02:00am - - - - - W 20 26 11 14 - - -
22/01:30am - - - - - W 20 26 11 14 - - -
22/01:00am - - - - - W 19 24 10 13 - - -
22/12:30am - - - - - W 19 24 10 13 - - -
22/12:00am - - - - - W 20 28 11 15 - - -
 
Date/Time
EST
Tmp

°C
App
Tmp
°C
Dew
Point
°C
Rel
Hum
%
Delta-T

°C
Wind Press
QNH
hPa
Press
MSL
hPa
Rain
since
9 am
mm
Dir
 
Spd
km/h
Gust
km/h
Spd
kts
Gust
kts
21/11:30pm - - - - - W 20 28 11 15 - - -
21/11:00pm - - - - - WSW 19 28 10 15 - - -
21/10:30pm - - - - - WSW 20 32 11 17 - - -
21/10:00pm - - - - - SW 20 30 11 16 - - -
21/09:30pm - - - - - SW 20 30 11 16 - - -
21/09:00pm - - - - - SSW 15 22 8 12 - - -
21/08:30pm - - - - - S 17 28 9 15 - - -
21/08:00pm - - - - - S 24 33 13 18 - - -
21/07:30pm - - - - - S 22 39 12 21 - - -
21/07:00pm - - - - - S 19 28 10 15 - - -
21/06:30pm - - - - - SSW 22 37 12 20 - - -
21/06:00pm - - - - - SSW 19 24 10 13 - - -
21/05:30pm - - - - - SSW 15 22 8 12 - - -

Latest Capital City Observations: Canberra | Sydney | Melbourne | Brisbane | Adelaide | Perth | Hobart | Darwin

Other Formats:

Comma delimited format used in spreadsheet applications
http://www.bom.gov.au/fwo/IDN60901/IDN60901.94769.axf

JavaScript Object Notation format (JSON) in row-major order
http://www.bom.gov.au/fwo/IDN60901/IDN60901.94769.json